PWSweather.com
Personal Weather Stations
Station Observations
SYLVANIAWX
Erie St. Near Centennial Rd., Sylvania, OH 43560

Erie St. Near Centennial Rd.Sylvania, OH 43560

Lat: 41.7172065, Lon: -83.7420078

Elevation: 672

Station Type: Davis Vantage Pro2

http://www.sylvaniaweather.com

High Low Average
Temperature 67.9°F19.9°C 44.0°F6.7°C 54.9°F12.7°C
Dew Point 57.6°F14.2°C 31.4°F-0.3°C 44.8°F7.1°C
Winds 6.0 mph 9.7 kmh Calm Calm 1.0 mph SE1.6 kmh SE
Wind Gusts 11.0 mph17.7 kmh -- 2.0 mph3.2 kmh
Humidity 92% 49% 70%
Pressure 30.19 in1022.4 mb 29.84 in1010.5 mb -
Precipitation 0.00 in0.0 mm - -
Hour Temp Dew Point Humidity Winds Wind Gusts Pressure Precip Precip Rate Daily Precip Total
12:00 AM 48.0°F8.9°C 30.3°F-0.9°C 50% Calm Calm 1.0 mph1.6 kmh 30.19 in1022.4 mb 0.00 in0.0 mm 0.00 in/hr0.0 mm/hr 0.00 in0.0 mm
12:05 AM 48.3°F9.1°C 30.5°F-0.8°C 50% Calm Calm 3.0 mph4.8 kmh 30.18 in1022.0 mb 0.00 in0.0 mm 0.00 in/hr0.0 mm/hr 0.00 in0.0 mm
12:09 AM 48.6°F9.2°C 29.8°F-1.2°C 48% Calm Calm 3.0 mph4.8 kmh 30.18 in1022.0 mb 0.00 in0.0 mm 0.00 in/hr0.0 mm/hr 0.00 in0.0 mm
12:15 AM 48.9°F9.4°C 31.1°F-0.5°C 50% Calm Calm 4.0 mph6.4 kmh 30.18 in1022.0 mb 0.00 in0.0 mm 0.00 in/hr0.0 mm/hr 0.00 in0.0 mm
12:20 AM 49.1°F9.5°C 30.8°F-0.7°C 49% Calm Calm 1.0 mph1.6 kmh 30.19 in1022.4 mb 0.00 in0.0 mm 0.00 in/hr0.0 mm/hr 0.00 in0.0 mm
12:25 AM 49.2°F9.6°C 31.4°F-0.3°C 50% 2.0 mph ESE3.2 kmh ESE 4.0 mph6.4 kmh 30.19 in1022.4 mb 0.00 in0.0 mm 0.00 in/hr0.0 mm/hr 0.00 in0.0 mm
12:30 AM 49.5°F9.7°C 31.7°F-0.2°C 50% Calm Calm -- 30.19 in1022.4 mb 0.00 in0.0 mm 0.00 in/hr0.0 mm/hr 0.00 in0.0 mm
12:35 AM 49.6°F9.8°C 31.7°F-0.2°C 50% Calm Calm 4.0 mph6.4 kmh 30.19 in1022.4 mb 0.00 in0.0 mm 0.00 in/hr0.0 mm/hr 0.00 in0.0 mm
12:40 AM 49.8°F9.9°C 32.4°F0.2°C 51% Calm Calm -- 30.18 in1022.0 mb 0.00 in0.0 mm 0.00 in/hr0.0 mm/hr 0.00 in0.0 mm
12:45 AM 49.8°F9.9°C 31.9°F-0.1°C 50% Calm Calm 9.0 mph14.5 kmh 30.18 in1022.0 mb 0.00 in0.0 mm 0.00 in/hr0.0 mm/hr 0.00 in0.0 mm
12:50 AM 49.9°F9.9°C 31.5°F-0.3°C 49% Calm Calm 2.0 mph3.2 kmh 30.19 in1022.4 mb 0.00 in0.0 mm 0.00 in/hr0.0 mm/hr 0.00 in0.0 mm
12:55 AM 50.0°F10.0°C 31.6°F-0.2°C 49% Calm Calm 4.0 mph6.4 kmh 30.18 in1022.0 mb 0.00 in0.0 mm 0.00 in/hr0.0 mm/hr 0.00 in0.0 mm
01:00 AM 50.0°F10.0°C 33.1°F0.6°C 52% Calm Calm 1.0 mph1.6 kmh 30.18 in1022.0 mb 0.00 in0.0 mm 0.00 in/hr0.0 mm/hr 0.00 in0.0 mm
01:05 AM 49.9°F9.9°C 32.0°F0.0°C 50% Calm Calm 5.0 mph8.0 kmh 30.18 in1022.0 mb 0.00 in0.0 mm 0.00 in/hr0.0 mm/hr 0.00 in0.0 mm
01:10 AM 49.8°F9.9°C 32.4°F0.2°C 51% Calm Calm -- 30.18 in1022.0 mb 0.00 in0.0 mm 0.00 in/hr0.0 mm/hr 0.00 in0.0 mm
01:15 AM 49.8°F9.9°C 31.9°F-0.1°C 50% Calm Calm 5.0 mph8.0 kmh 30.18 in1022.0 mb 0.00 in0.0 mm 0.00 in/hr0.0 mm/hr 0.00 in0.0 mm
01:20 AM 49.8°F9.9°C 31.4°F-0.3°C 49% Calm Calm -- 30.18 in1022.0 mb 0.00 in0.0 mm 0.00 in/hr0.0 mm/hr 0.00 in0.0 mm
01:25 AM 49.9°F9.9°C 32.0°F0.0°C 50% Calm Calm 6.0 mph9.7 kmh 30.18 in1022.0 mb 0.00 in0.0 mm 0.00 in/hr0.0 mm/hr 0.00 in0.0 mm
01:30 AM 50.0°F10.0°C 32.1°F0.1°C 50% Calm Calm 4.0 mph6.4 kmh 30.17 in1021.7 mb 0.00 in0.0 mm 0.00 in/hr0.0 mm/hr 0.00 in0.0 mm
01:35 AM 50.0°F10.0°C 32.1°F0.1°C 50% 4.0 mph E6.4 kmh E 5.0 mph8.0 kmh 30.18 in1022.0 mb 0.00 in0.0 mm 0.00 in/hr0.0 mm/hr 0.00 in0.0 mm
01:40 AM 50.0°F10.0°C 32.6°F0.3°C 51% 2.0 mph ENE3.2 kmh ENE 2.0 mph3.2 kmh 30.19 in1022.4 mb 0.00 in0.0 mm 0.00 in/hr0.0 mm/hr 0.00 in0.0 mm
01:45 AM 50.1°F10.1°C 33.2°F0.7°C 52% Calm Calm 6.0 mph9.7 kmh 30.18 in1022.0 mb 0.00 in0.0 mm 0.00 in/hr0.0 mm/hr 0.00 in0.0 mm
01:50 AM 49.9°F9.9°C 33.9°F1.1°C 54% Calm Calm 3.0 mph4.8 kmh 30.17 in1021.7 mb 0.00 in0.0 mm 0.00 in/hr0.0 mm/hr 0.00 in0.0 mm
01:55 AM 49.7°F9.8°C 35.1°F1.7°C 57% 5.0 mph E8.0 kmh E 9.0 mph14.5 kmh 30.17 in1021.7 mb 0.00 in0.0 mm 0.00 in/hr0.0 mm/hr 0.00 in0.0 mm
02:00 AM 49.4°F9.7°C 35.3°F1.8°C 58% 2.0 mph NE3.2 kmh NE 3.0 mph4.8 kmh 30.17 in1021.7 mb 0.00 in0.0 mm 0.00 in/hr0.0 mm/hr 0.00 in0.0 mm
02:05 AM 49.2°F9.6°C 35.5°F1.9°C 59% Calm Calm 3.0 mph4.8 kmh 30.17 in1021.7 mb 0.00 in0.0 mm 0.00 in/hr0.0 mm/hr 0.00 in0.0 mm
02:10 AM 49.1°F9.5°C 36.7°F2.6°C 62% Calm Calm -- 30.17 in1021.7 mb 0.00 in0.0 mm 0.00 in/hr0.0 mm/hr 0.00 in0.0 mm
02:15 AM 49.0°F9.4°C 36.6°F2.6°C 62% Calm Calm -- 30.18 in1022.0 mb 0.00 in0.0 mm 0.00 in/hr0.0 mm/hr 0.00 in0.0 mm
02:20 AM 49.0°F9.4°C 37.0°F2.8°C 63% Calm Calm -- 30.16 in1021.3 mb 0.00 in0.0 mm 0.00 in/hr0.0 mm/hr 0.00 in0.0 mm
02:25 AM 48.8°F9.3°C 37.2°F2.9°C 64% Calm Calm 2.0 mph3.2 kmh 30.16 in1021.3 mb 0.00 in0.0 mm 0.00 in/hr0.0 mm/hr 0.00 in0.0 mm
02:30 AM 48.7°F9.3°C 37.9°F3.3°C 66% Calm Calm 1.0 mph1.6 kmh 30.16 in1021.3 mb 0.00 in0.0 mm 0.00 in/hr0.0 mm/hr 0.00 in0.0 mm
02:35 AM 48.5°F9.2°C 37.7°F3.2°C 66% Calm Calm 2.0 mph3.2 kmh 30.16 in1021.3 mb 0.00 in0.0 mm 0.00 in/hr0.0 mm/hr 0.00 in0.0 mm
02:45 AM 48.0°F8.9°C 37.6°F3.1°C 67% 1.0 mph ENE1.6 kmh ENE 4.0 mph6.4 kmh 30.15 in1021.0 mb 0.00 in0.0 mm 0.00 in/hr0.0 mm/hr 0.00 in0.0 mm
02:50 AM 47.8°F8.8°C 37.0°F2.8°C 66% Calm Calm 3.0 mph4.8 kmh 30.15 in1021.0 mb 0.00 in0.0 mm 0.00 in/hr0.0 mm/hr 0.00 in0.0 mm
02:55 AM 47.6°F8.7°C 36.8°F2.7°C 66% Calm Calm 3.0 mph4.8 kmh 30.14 in1020.7 mb 0.00 in0.0 mm 0.00 in/hr0.0 mm/hr 0.00 in0.0 mm
03:00 AM 47.4°F8.6°C 36.6°F2.6°C 66% Calm Calm -- 30.14 in1020.7 mb 0.00 in0.0 mm 0.00 in/hr0.0 mm/hr 0.00 in0.0 mm
03:05 AM 47.3°F8.5°C 36.2°F2.3°C 65% 3.0 mph NE4.8 kmh NE 4.0 mph6.4 kmh 30.14 in1020.7 mb 0.00 in0.0 mm 0.00 in/hr0.0 mm/hr 0.00 in0.0 mm
03:10 AM 47.3°F8.5°C 35.4°F1.9°C 63% Calm Calm -- 30.13 in1020.3 mb 0.00 in0.0 mm 0.00 in/hr0.0 mm/hr 0.00 in0.0 mm
03:15 AM 47.3°F8.5°C 35.0°F1.7°C 62% Calm Calm 2.0 mph3.2 kmh 30.12 in1020.0 mb 0.00 in0.0 mm 0.00 in/hr0.0 mm/hr 0.00 in0.0 mm
03:20 AM 47.4°F8.6°C 35.5°F1.9°C 63% 3.0 mph ENE4.8 kmh ENE 3.0 mph4.8 kmh 30.12 in1020.0 mb 0.00 in0.0 mm 0.00 in/hr0.0 mm/hr 0.00 in0.0 mm
03:25 AM 47.4°F8.6°C 33.4°F0.8°C 58% 2.0 mph ENE3.2 kmh ENE 5.0 mph8.0 kmh 30.12 in1020.0 mb 0.00 in0.0 mm 0.00 in/hr0.0 mm/hr 0.00 in0.0 mm
03:30 AM 47.6°F8.7°C 32.3°F0.2°C 55% Calm Calm 1.0 mph1.6 kmh 30.11 in1019.6 mb 0.00 in0.0 mm 0.00 in/hr0.0 mm/hr 0.00 in0.0 mm
03:35 AM 47.8°F8.8°C 32.4°F0.2°C 55% 3.0 mph E4.8 kmh E 4.0 mph6.4 kmh 30.11 in1019.6 mb 0.00 in0.0 mm 0.00 in/hr0.0 mm/hr 0.00 in0.0 mm
03:40 AM 47.9°F8.8°C 32.5°F0.3°C 55% 3.0 mph E4.8 kmh E 3.0 mph4.8 kmh 30.11 in1019.6 mb 0.00 in0.0 mm 0.00 in/hr0.0 mm/hr 0.00 in0.0 mm
03:45 AM 47.9°F8.8°C 32.5°F0.3°C 55% Calm Calm 6.0 mph9.7 kmh 30.11 in1019.6 mb 0.00 in0.0 mm 0.00 in/hr0.0 mm/hr 0.00 in0.0 mm
03:50 AM 47.9°F8.8°C 33.0°F0.6°C 56% Calm Calm 3.0 mph4.8 kmh 30.10 in1019.3 mb 0.00 in0.0 mm 0.00 in/hr0.0 mm/hr 0.00 in0.0 mm
03:55 AM 47.9°F8.8°C 33.0°F0.6°C 56% Calm Calm 7.0 mph11.3 kmh 30.10 in1019.3 mb 0.00 in0.0 mm 0.00 in/hr0.0 mm/hr 0.00 in0.0 mm
04:00 AM 47.9°F8.8°C 33.0°F0.6°C 56% Calm Calm -- 30.11 in1019.6 mb 0.00 in0.0 mm 0.00 in/hr0.0 mm/hr 0.00 in0.0 mm
04:05 AM 47.9°F8.8°C 33.4°F0.8°C 57% Calm Calm 5.0 mph8.0 kmh 30.11 in1019.6 mb 0.00 in0.0 mm 0.00 in/hr0.0 mm/hr 0.00 in0.0 mm
04:10 AM 48.0°F8.9°C 33.5°F0.8°C 57% Calm Calm -- 30.11 in1019.6 mb 0.00 in0.0 mm 0.00 in/hr0.0 mm/hr 0.00 in0.0 mm
04:15 AM 48.1°F8.9°C 34.0°F1.1°C 58% 2.0 mph E3.2 kmh E 6.0 mph9.7 kmh 30.12 in1020.0 mb 0.00 in0.0 mm 0.00 in/hr0.0 mm/hr 0.00 in0.0 mm
04:20 AM 48.1°F8.9°C 34.0°F1.1°C 58% Calm Calm -- 30.12 in1020.0 mb 0.00 in0.0 mm 0.00 in/hr0.0 mm/hr 0.00 in0.0 mm
04:25 AM 48.2°F9.0°C 34.1°F1.2°C 58% Calm Calm 4.0 mph6.4 kmh 30.11 in1019.6 mb 0.00 in0.0 mm 0.00 in/hr0.0 mm/hr 0.00 in0.0 mm
04:30 AM 48.3°F9.1°C 34.7°F1.5°C 59% Calm Calm -- 30.10 in1019.3 mb 0.00 in0.0 mm 0.00 in/hr0.0 mm/hr 0.00 in0.0 mm
04:35 AM 48.2°F9.0°C 34.1°F1.2°C 58% Calm Calm 10.0 mph16.1 kmh 30.10 in1019.3 mb 0.00 in0.0 mm 0.00 in/hr0.0 mm/hr 0.00 in0.0 mm
04:40 AM 48.2°F9.0°C 34.1°F1.2°C 58% 4.0 mph E6.4 kmh E 4.0 mph6.4 kmh 30.10 in1019.3 mb 0.00 in0.0 mm 0.00 in/hr0.0 mm/hr 0.00 in0.0 mm
04:45 AM 48.3°F9.1°C 34.7°F1.5°C 59% 4.0 mph E6.4 kmh E 6.0 mph9.7 kmh 30.10 in1019.3 mb 0.00 in0.0 mm 0.00 in/hr0.0 mm/hr 0.00 in0.0 mm
04:50 AM 48.3°F9.1°C 35.1°F1.7°C 60% Calm Calm -- 30.10 in1019.3 mb 0.00 in0.0 mm 0.00 in/hr0.0 mm/hr 0.00 in0.0 mm
04:55 AM 48.3°F9.1°C 35.1°F1.7°C 60% 4.0 mph ENE6.4 kmh ENE 6.0 mph9.7 kmh 30.09 in1019.0 mb 0.00 in0.0 mm 0.00 in/hr0.0 mm/hr 0.00 in0.0 mm
05:00 AM 48.2°F9.0°C 35.0°F1.7°C 60% Calm Calm -- 30.10 in1019.3 mb 0.00 in0.0 mm 0.00 in/hr0.0 mm/hr 0.00 in0.0 mm
05:05 AM 48.2°F9.0°C 35.4°F1.9°C 61% Calm Calm 5.0 mph8.0 kmh 30.09 in1019.0 mb 0.00 in0.0 mm 0.00 in/hr0.0 mm/hr 0.00 in0.0 mm
05:10 AM 48.2°F9.0°C 35.0°F1.7°C 60% Calm Calm 5.0 mph8.0 kmh 30.09 in1019.0 mb 0.00 in0.0 mm 0.00 in/hr0.0 mm/hr 0.00 in0.0 mm
05:15 AM 48.4°F9.1°C 35.2°F1.8°C 60% Calm Calm 6.0 mph9.7 kmh 30.08 in1018.6 mb 0.00 in0.0 mm 0.00 in/hr0.0 mm/hr 0.00 in0.0 mm
05:20 AM 48.5°F9.2°C 35.3°F1.8°C 60% 3.0 mph NE4.8 kmh NE 3.0 mph4.8 kmh 30.08 in1018.6 mb 0.00 in0.0 mm 0.00 in/hr0.0 mm/hr 0.00 in0.0 mm
05:25 AM 48.6°F9.2°C 34.5°F1.4°C 58% Calm Calm 6.0 mph9.7 kmh 30.09 in1019.0 mb 0.00 in0.0 mm 0.00 in/hr0.0 mm/hr 0.00 in0.0 mm
05:30 AM 48.7°F9.3°C 34.6°F1.4°C 58% Calm Calm -- 30.08 in1018.6 mb 0.00 in0.0 mm 0.00 in/hr0.0 mm/hr 0.00 in0.0 mm
05:35 AM 48.8°F9.3°C 34.7°F1.5°C 58% Calm Calm 5.0 mph8.0 kmh 30.09 in1019.0 mb 0.00 in0.0 mm 0.00 in/hr0.0 mm/hr 0.00 in0.0 mm
05:40 AM 49.0°F9.4°C 34.9°F1.6°C 58% Calm Calm -- 30.08 in1018.6 mb 0.00 in0.0 mm 0.00 in/hr0.0 mm/hr 0.00 in0.0 mm
05:45 AM 49.1°F9.5°C 35.4°F1.9°C 59% Calm Calm 4.0 mph6.4 kmh 30.08 in1018.6 mb 0.00 in0.0 mm 0.00 in/hr0.0 mm/hr 0.00 in0.0 mm
05:50 AM 49.2°F9.6°C 35.1°F1.7°C 58% 1.0 mph E1.6 kmh E 1.0 mph1.6 kmh 30.08 in1018.6 mb 0.00 in0.0 mm 0.00 in/hr0.0 mm/hr 0.00 in0.0 mm
05:55 AM 49.2°F9.6°C 35.1°F1.7°C 58% Calm Calm 5.0 mph8.0 kmh 30.08 in1018.6 mb 0.00 in0.0 mm 0.00 in/hr0.0 mm/hr 0.00 in0.0 mm
06:00 AM 49.4°F9.7°C 35.3°F1.8°C 58% Calm Calm -- 30.08 in1018.6 mb 0.00 in0.0 mm 0.00 in/hr0.0 mm/hr 0.00 in0.0 mm
06:05 AM 49.5°F9.7°C 35.4°F1.9°C 58% Calm Calm 4.0 mph6.4 kmh 30.08 in1018.6 mb 0.00 in0.0 mm 0.00 in/hr0.0 mm/hr 0.00 in0.0 mm
06:10 AM 49.6°F9.8°C 35.9°F2.2°C 59% 5.0 mph ESE8.0 kmh ESE 5.0 mph8.0 kmh 30.08 in1018.6 mb 0.00 in0.0 mm 0.00 in/hr0.0 mm/hr 0.00 in0.0 mm
06:15 AM 49.6°F9.8°C 36.3°F2.4°C 60% Calm Calm 5.0 mph8.0 kmh 30.08 in1018.6 mb 0.00 in0.0 mm 0.00 in/hr0.0 mm/hr 0.00 in0.0 mm
06:20 AM 49.6°F9.8°C 37.1°F2.8°C 62% Calm Calm 3.0 mph4.8 kmh 30.08 in1018.6 mb 0.00 in0.0 mm 0.00 in/hr0.0 mm/hr 0.00 in0.0 mm
06:25 AM 49.4°F9.7°C 37.8°F3.2°C 64% Calm Calm 3.0 mph4.8 kmh 30.08 in1018.6 mb 0.00 in0.0 mm 0.00 in/hr0.0 mm/hr 0.00 in0.0 mm
06:30 AM 49.1°F9.5°C 37.9°F3.3°C 65% Calm Calm 2.0 mph3.2 kmh 30.08 in1018.6 mb 0.00 in0.0 mm 0.00 in/hr0.0 mm/hr 0.00 in0.0 mm
06:35 AM 48.8°F9.3°C 39.1°F3.9°C 69% Calm Calm 2.0 mph3.2 kmh 30.09 in1019.0 mb 0.00 in0.0 mm 0.00 in/hr0.0 mm/hr 0.00 in0.0 mm
06:40 AM 48.4°F9.1°C 39.1°F3.9°C 70% Calm Calm -- 30.08 in1018.6 mb 0.00 in0.0 mm 0.00 in/hr0.0 mm/hr 0.00 in0.0 mm
06:45 AM 48.2°F9.0°C 39.3°F4.1°C 71% Calm Calm 4.0 mph6.4 kmh 30.08 in1018.6 mb 0.00 in0.0 mm 0.00 in/hr0.0 mm/hr 0.00 in0.0 mm
06:50 AM 48.0°F8.9°C 39.8°F4.3°C 73% Calm Calm -- 30.07 in1018.3 mb 0.01 in0.3 mm 0.12 in/hr3.0 mm/hr 0.01 in0.3 mm
06:55 AM 47.8°F8.8°C 39.9°F4.4°C 74% Calm Calm 1.0 mph1.6 kmh 30.07 in1018.3 mb 0.01 in0.3 mm 0.00 in/hr0.0 mm/hr 0.01 in0.3 mm
07:00 AM 47.7°F8.7°C 40.5°F4.7°C 76% Calm Calm 2.0 mph3.2 kmh 30.07 in1018.3 mb 0.01 in0.3 mm 0.00 in/hr0.0 mm/hr 0.01 in0.3 mm
07:05 AM 47.5°F8.6°C 40.3°F4.6°C 76% Calm Calm 2.0 mph3.2 kmh 30.08 in1018.6 mb 0.01 in0.3 mm 0.00 in/hr0.0 mm/hr 0.01 in0.3 mm
07:10 AM 47.4°F8.6°C 40.9°F4.9°C 78% Calm Calm 2.0 mph3.2 kmh 30.08 in1018.6 mb 0.02 in0.5 mm 0.12 in/hr3.0 mm/hr 0.02 in0.5 mm
07:15 AM 47.3°F8.5°C 41.1°F5.1°C 79% 1.0 mph ESE1.6 kmh ESE 3.0 mph4.8 kmh 30.07 in1018.3 mb 0.02 in0.5 mm 0.00 in/hr0.0 mm/hr 0.02 in0.5 mm
07:20 AM 47.2°F8.4°C 41.4°F5.2°C 80% Calm Calm 5.0 mph8.0 kmh 30.07 in1018.3 mb 0.02 in0.5 mm 0.00 in/hr0.0 mm/hr 0.02 in0.5 mm
07:25 AM 47.1°F8.4°C 41.3°F5.2°C 80% Calm Calm 5.0 mph8.0 kmh 30.08 in1018.6 mb 0.02 in0.5 mm 0.00 in/hr0.0 mm/hr 0.02 in0.5 mm
07:30 AM 46.9°F8.3°C 41.4°F5.2°C 81% 1.0 mph SE1.6 kmh SE 1.0 mph1.6 kmh 30.08 in1018.6 mb 0.02 in0.5 mm 0.00 in/hr0.0 mm/hr 0.02 in0.5 mm
07:35 AM 46.8°F8.2°C 41.6°F5.3°C 82% 2.0 mph NE3.2 kmh NE 3.0 mph4.8 kmh 30.07 in1018.3 mb 0.07 in1.8 mm 0.60 in/hr15.2 mm/hr 0.07 in1.8 mm
07:40 AM 46.2°F7.9°C 40.7°F4.8°C 81% 4.0 mph SE6.4 kmh SE 6.0 mph9.7 kmh 30.06 in1017.9 mb 0.13 in3.3 mm 0.72 in/hr18.3 mm/hr 0.13 in3.3 mm
07:45 AM 45.4°F7.4°C 40.6°F4.8°C 83% 5.0 mph S8.0 kmh S 7.0 mph11.3 kmh 30.06 in1017.9 mb 0.23 in5.8 mm 1.20 in/hr30.5 mm/hr 0.23 in5.8 mm
07:50 AM 44.9°F7.2°C 40.1°F4.5°C 83% Calm Calm 11.0 mph17.7 kmh 30.06 in1017.9 mb 0.24 in6.1 mm 0.12 in/hr3.0 mm/hr 0.24 in6.1 mm
07:55 AM 44.5°F6.9°C 40.0°F4.4°C 84% Calm Calm 11.0 mph17.7 kmh 30.06 in1017.9 mb 0.24 in6.1 mm 0.00 in/hr0.0 mm/hr 0.24 in6.1 mm
08:00 AM 44.3°F6.8°C 40.1°F4.5°C 85% Calm Calm -- 30.06 in1017.9 mb 0.24 in6.1 mm 0.00 in/hr0.0 mm/hr 0.24 in6.1 mm
08:05 AM 44.2°F6.8°C 40.3°F4.6°C 86% Calm Calm 2.0 mph3.2 kmh 30.06 in1017.9 mb 0.25 in6.4 mm 0.12 in/hr3.0 mm/hr 0.25 in6.4 mm
08:10 AM 44.2°F6.8°C 40.3°F4.6°C 86% 1.0 mph E1.6 kmh E 2.0 mph3.2 kmh 30.06 in1017.9 mb 0.27 in6.9 mm 0.24 in/hr6.1 mm/hr 0.27 in6.9 mm
08:15 AM 44.1°F6.7°C 40.5°F4.7°C 87% Calm Calm 2.0 mph3.2 kmh 30.06 in1017.9 mb 0.29 in7.4 mm 0.24 in/hr6.1 mm/hr 0.29 in7.4 mm
08:20 AM 44.0°F6.7°C 40.4°F4.7°C 87% Calm Calm -- 30.07 in1018.3 mb 0.29 in7.4 mm 0.00 in/hr0.0 mm/hr 0.29 in7.4 mm
08:25 AM 44.0°F6.7°C 40.4°F4.7°C 87% Calm Calm 1.0 mph1.6 kmh 30.08 in1018.6 mb 0.29 in7.4 mm 0.00 in/hr0.0 mm/hr 0.29 in7.4 mm
08:30 AM 44.0°F6.7°C 40.7°F4.8°C 88% Calm Calm -- 30.08 in1018.6 mb 0.29 in7.4 mm 0.00 in/hr0.0 mm/hr 0.29 in7.4 mm
08:35 AM 44.0°F6.7°C 40.7°F4.8°C 88% Calm Calm 2.0 mph3.2 kmh 30.07 in1018.3 mb 0.29 in7.4 mm 0.00 in/hr0.0 mm/hr 0.29 in7.4 mm
08:40 AM 44.1°F6.7°C 40.8°F4.9°C 88% 2.0 mph E3.2 kmh E 2.0 mph3.2 kmh 30.07 in1018.3 mb 0.19 in4.8 mm 0.00 in/hr0.0 mm/hr 0.29 in7.4 mm
08:45 AM 44.3°F6.8°C 41.3°F5.2°C 89% Calm Calm 2.0 mph3.2 kmh 30.07 in1018.3 mb 0.19 in4.8 mm 0.00 in/hr0.0 mm/hr 0.29 in7.4 mm
08:50 AM 44.5°F6.9°C 41.5°F5.3°C 89% Calm Calm -- 30.07 in1018.3 mb 0.06 in1.5 mm 0.00 in/hr0.0 mm/hr 0.29 in7.4 mm
08:55 AM 44.6°F7.0°C 41.6°F5.3°C 89% 2.0 mph E3.2 kmh E 2.0 mph3.2 kmh 30.06 in1017.9 mb 0.06 in1.5 mm 0.00 in/hr0.0 mm/hr 0.29 in7.4 mm
09:00 AM 44.8°F7.1°C 41.8°F5.4°C 89% Calm Calm -- 30.06 in1017.9 mb 0.06 in1.5 mm 0.00 in/hr0.0 mm/hr 0.29 in7.4 mm
09:05 AM 45.0°F7.2°C 42.0°F5.6°C 89% Calm Calm 3.0 mph4.8 kmh 30.06 in1017.9 mb 0.06 in1.5 mm 0.00 in/hr0.0 mm/hr 0.29 in7.4 mm
09:10 AM 45.2°F7.3°C 42.5°F5.8°C 90% Calm Calm 3.0 mph4.8 kmh 30.05 in1017.6 mb 0.02 in0.5 mm 0.00 in/hr0.0 mm/hr 0.29 in7.4 mm
09:15 AM 45.3°F7.4°C 42.6°F5.9°C 90% 2.0 mph E3.2 kmh E 3.0 mph4.8 kmh 30.05 in1017.6 mb 0.02 in0.5 mm 0.00 in/hr0.0 mm/hr 0.29 in7.4 mm
09:20 AM 45.5°F7.5°C 42.5°F5.8°C 89% Calm Calm 2.0 mph3.2 kmh 30.05 in1017.6 mb 0.00 in0.0 mm 0.00 in/hr0.0 mm/hr 0.29 in7.4 mm
09:25 AM 45.7°F7.6°C 42.9°F6.1°C 90% Calm Calm 4.0 mph6.4 kmh 30.05 in1017.6 mb 0.00 in0.0 mm 0.00 in/hr0.0 mm/hr 0.29 in7.4 mm
09:30 AM 46.0°F7.8°C 43.0°F6.1°C 89% Calm Calm 1.0 mph1.6 kmh 30.04 in1017.3 mb 0.00 in0.0 mm 0.00 in/hr0.0 mm/hr 0.29 in7.4 mm
09:35 AM 47.0°F8.3°C 44.2°F6.8°C 90% 1.0 mph E1.6 kmh E 4.0 mph6.4 kmh 30.04 in1017.3 mb 0.00 in0.0 mm 0.00 in/hr0.0 mm/hr 0.29 in7.4 mm
09:40 AM 47.5°F8.6°C 44.4°F6.9°C 89% Calm Calm 5.0 mph8.0 kmh 30.03 in1016.9 mb 0.00 in0.0 mm 0.00 in/hr0.0 mm/hr 0.29 in7.4 mm
09:45 AM 47.9°F8.8°C 44.5°F6.9°C 88% 3.0 mph SSE4.8 kmh SSE 5.0 mph8.0 kmh 30.03 in1016.9 mb 0.00 in0.0 mm 0.00 in/hr0.0 mm/hr 0.29 in7.4 mm
09:50 AM 48.0°F8.9°C 44.0°F6.7°C 86% Calm Calm 4.0 mph6.4 kmh 30.03 in1016.9 mb 0.00 in0.0 mm 0.00 in/hr0.0 mm/hr 0.29 in7.4 mm
09:55 AM 48.5°F9.2°C 44.2°F6.8°C 85% Calm Calm 6.0 mph9.7 kmh 30.03 in1016.9 mb 0.00 in0.0 mm 0.00 in/hr0.0 mm/hr 0.29 in7.4 mm
10:00 AM 48.7°F9.3°C 44.1°F6.7°C 84% Calm Calm -- 30.03 in1016.9 mb 0.00 in0.0 mm 0.00 in/hr0.0 mm/hr 0.29 in7.4 mm
10:05 AM 49.3°F9.6°C 44.7°F7.1°C 84% Calm Calm 3.0 mph4.8 kmh 30.02 in1016.6 mb 0.00 in0.0 mm 0.00 in/hr0.0 mm/hr 0.29 in7.4 mm
10:10 AM 49.9°F9.9°C 44.6°F7.0°C 82% Calm Calm -- 30.02 in1016.6 mb 0.00 in0.0 mm 0.00 in/hr0.0 mm/hr 0.29 in7.4 mm
10:15 AM 50.4°F10.2°C 44.1°F6.7°C 79% 3.0 mph SSE4.8 kmh SSE 6.0 mph9.7 kmh 30.02 in1016.6 mb 0.00 in0.0 mm 0.00 in/hr0.0 mm/hr 0.29 in7.4 mm
10:20 AM 51.0°F10.6°C 44.4°F6.9°C 78% Calm Calm 2.0 mph3.2 kmh 30.02 in1016.6 mb 0.00 in0.0 mm 0.00 in/hr0.0 mm/hr 0.29 in7.4 mm
10:25 AM 51.7°F10.9°C 44.4°F6.9°C 76% 1.0 mph SE1.6 kmh SE 7.0 mph11.3 kmh 30.02 in1016.6 mb 0.00 in0.0 mm 0.00 in/hr0.0 mm/hr 0.29 in7.4 mm
10:30 AM 52.4°F11.3°C 45.1°F7.3°C 76% 2.0 mph SE3.2 kmh SE 3.0 mph4.8 kmh 30.02 in1016.6 mb 0.00 in0.0 mm 0.00 in/hr0.0 mm/hr 0.29 in7.4 mm
10:35 AM 52.9°F11.6°C 44.5°F6.9°C 73% Calm Calm 3.0 mph4.8 kmh 30.02 in1016.6 mb 0.00 in0.0 mm 0.00 in/hr0.0 mm/hr 0.29 in7.4 mm
10:40 AM 53.5°F11.9°C 44.7°F7.1°C 72% Calm Calm -- 30.02 in1016.6 mb 0.00 in0.0 mm 0.00 in/hr0.0 mm/hr 0.29 in7.4 mm
10:45 AM 53.9°F12.2°C 44.4°F6.9°C 70% Calm Calm 2.0 mph3.2 kmh 30.02 in1016.6 mb 0.00 in0.0 mm 0.00 in/hr0.0 mm/hr 0.29 in7.4 mm
10:50 AM 54.4°F12.4°C 44.8°F7.1°C 70% Calm Calm -- 30.02 in1016.6 mb 0.00 in0.0 mm 0.00 in/hr0.0 mm/hr 0.29 in7.4 mm
10:55 AM 54.6°F12.6°C 43.5°F6.4°C 66% Calm Calm 5.0 mph8.0 kmh 30.01 in1016.3 mb 0.00 in0.0 mm 0.00 in/hr0.0 mm/hr 0.29 in7.4 mm
11:00 AM 54.7°F12.6°C 44.4°F6.9°C 68% Calm Calm -- 30.00 in1015.9 mb 0.00 in0.0 mm 0.00 in/hr0.0 mm/hr 0.29 in7.4 mm
11:05 AM 55.5°F13.1°C 45.9°F7.7°C 70% Calm Calm 2.0 mph3.2 kmh 29.99 in1015.6 mb 0.00 in0.0 mm 0.00 in/hr0.0 mm/hr 0.29 in7.4 mm
11:10 AM 56.3°F13.5°C 44.7°F7.1°C 65% 2.0 mph E3.2 kmh E 2.0 mph3.2 kmh 29.99 in1015.6 mb 0.00 in0.0 mm 0.00 in/hr0.0 mm/hr 0.29 in7.4 mm
11:15 AM 56.5°F13.6°C 44.5°F6.9°C 64% Calm Calm 3.0 mph4.8 kmh 29.99 in1015.6 mb 0.00 in0.0 mm 0.00 in/hr0.0 mm/hr 0.29 in7.4 mm
11:20 AM 56.4°F13.6°C 44.0°F6.7°C 63% Calm Calm -- 29.99 in1015.6 mb 0.00 in0.0 mm 0.00 in/hr0.0 mm/hr 0.29 in7.4 mm
11:25 AM 56.5°F13.6°C 44.9°F7.2°C 65% 2.0 mph S3.2 kmh S 2.0 mph3.2 kmh 29.99 in1015.6 mb 0.00 in0.0 mm 0.00 in/hr0.0 mm/hr 0.29 in7.4 mm
11:30 AM 57.2°F14.0°C 45.2°F7.3°C 64% Calm Calm 5.0 mph8.0 kmh 29.99 in1015.6 mb 0.00 in0.0 mm 0.00 in/hr0.0 mm/hr 0.29 in7.4 mm
11:35 AM 58.1°F14.5°C 46.0°F7.8°C 64% 2.0 mph SE3.2 kmh SE 5.0 mph8.0 kmh 29.99 in1015.6 mb 0.00 in0.0 mm 0.00 in/hr0.0 mm/hr 0.29 in7.4 mm
11:40 AM 59.0°F15.0°C 46.0°F7.8°C 62% Calm Calm 2.0 mph3.2 kmh 29.98 in1015.2 mb 0.00 in0.0 mm 0.00 in/hr0.0 mm/hr 0.29 in7.4 mm
11:45 AM 59.0°F15.0°C 45.2°F7.3°C 60% Calm Calm 4.0 mph6.4 kmh 29.98 in1015.2 mb 0.00 in0.0 mm 0.00 in/hr0.0 mm/hr 0.29 in7.4 mm
11:50 AM 59.0°F15.0°C 44.7°F7.1°C 59% Calm Calm -- 29.97 in1014.9 mb 0.00 in0.0 mm 0.00 in/hr0.0 mm/hr 0.29 in7.4 mm
11:55 AM 59.0°F15.0°C 45.6°F7.6°C 61% Calm Calm 5.0 mph8.0 kmh 29.99 in1015.6 mb 0.00 in0.0 mm 0.00 in/hr0.0 mm/hr 0.29 in7.4 mm
12:00 PM 59.8°F15.4°C 46.8°F8.2°C 62% Calm Calm 1.0 mph1.6 kmh 29.98 in1015.2 mb 0.00 in0.0 mm 0.00 in/hr0.0 mm/hr 0.29 in7.4 mm
12:05 PM 60.6°F15.9°C 47.5°F8.6°C 62% 4.0 mph ESE6.4 kmh ESE 4.0 mph6.4 kmh 29.97 in1014.9 mb 0.00 in0.0 mm 0.00 in/hr0.0 mm/hr 0.29 in7.4 mm
12:10 PM 61.1°F16.2°C 46.2°F7.9°C 58% Calm Calm -- 29.96 in1014.6 mb 0.00 in0.0 mm 0.00 in/hr0.0 mm/hr 0.29 in7.4 mm
12:15 PM 61.8°F16.6°C 46.9°F8.3°C 58% Calm Calm 6.0 mph9.7 kmh 29.95 in1014.2 mb 0.00 in0.0 mm 0.00 in/hr0.0 mm/hr 0.29 in7.4 mm
12:20 PM 62.2°F16.8°C 47.7°F8.7°C 59% Calm Calm 1.0 mph1.6 kmh 29.95 in1014.2 mb 0.00 in0.0 mm 0.00 in/hr0.0 mm/hr 0.29 in7.4 mm
12:25 PM 62.4°F16.9°C 47.9°F8.8°C 59% Calm Calm 6.0 mph9.7 kmh 29.95 in1014.2 mb 0.00 in0.0 mm 0.00 in/hr0.0 mm/hr 0.29 in7.4 mm
12:30 PM 62.7°F17.1°C 48.6°F9.2°C 60% 1.0 mph ESE1.6 kmh ESE 5.0 mph8.0 kmh 29.96 in1014.6 mb 0.00 in0.0 mm 0.00 in/hr0.0 mm/hr 0.29 in7.4 mm
12:35 PM 62.8°F17.1°C 48.7°F9.3°C 60% 2.0 mph SE3.2 kmh SE 5.0 mph8.0 kmh 29.95 in1014.2 mb 0.00 in0.0 mm 0.00 in/hr0.0 mm/hr 0.29 in7.4 mm
12:40 PM 62.8°F17.1°C 49.2°F9.6°C 61% Calm Calm -- 29.93 in1013.5 mb 0.00 in0.0 mm 0.00 in/hr0.0 mm/hr 0.29 in7.4 mm
12:45 PM 63.1°F17.3°C 48.6°F9.2°C 59% Calm Calm 3.0 mph4.8 kmh 29.94 in1013.9 mb 0.00 in0.0 mm 0.00 in/hr0.0 mm/hr 0.29 in7.4 mm
12:50 PM 63.3°F17.4°C 48.3°F9.1°C 58% Calm Calm -- 29.93 in1013.5 mb 0.00 in0.0 mm 0.00 in/hr0.0 mm/hr 0.29 in7.4 mm
12:55 PM 63.9°F17.7°C 50.2°F10.1°C 61% Calm Calm 4.0 mph6.4 kmh 29.93 in1013.5 mb 0.00 in0.0 mm 0.00 in/hr0.0 mm/hr 0.29 in7.4 mm
01:00 PM 64.2°F17.9°C 49.6°F9.8°C 59% Calm Calm 3.0 mph4.8 kmh 29.93 in1013.5 mb 0.00 in0.0 mm 0.00 in/hr0.0 mm/hr 0.29 in7.4 mm
01:05 PM 64.4°F18.0°C 49.3°F9.6°C 58% 1.0 mph SSE1.6 kmh SSE 3.0 mph4.8 kmh 29.93 in1013.5 mb 0.00 in0.0 mm 0.00 in/hr0.0 mm/hr 0.29 in7.4 mm
01:10 PM 64.2°F17.9°C 50.0°F10.0°C 60% Calm Calm -- 29.93 in1013.5 mb 0.00 in0.0 mm 0.00 in/hr0.0 mm/hr 0.29 in7.4 mm
01:15 PM 64.2°F17.9°C 50.0°F10.0°C 60% 2.0 mph S3.2 kmh S 2.0 mph3.2 kmh 29.93 in1013.5 mb 0.00 in0.0 mm 0.00 in/hr0.0 mm/hr 0.29 in7.4 mm
01:20 PM 64.2°F17.9°C 50.0°F10.0°C 60% Calm Calm 1.0 mph1.6 kmh 29.94 in1013.9 mb 0.00 in0.0 mm 0.00 in/hr0.0 mm/hr 0.29 in7.4 mm
01:25 PM 64.3°F17.9°C 50.1°F10.1°C 60% Calm Calm 4.0 mph6.4 kmh 29.94 in1013.9 mb 0.00 in0.0 mm 0.00 in/hr0.0 mm/hr 0.29 in7.4 mm
01:30 PM 64.3°F17.9°C 50.1°F10.1°C 60% Calm Calm -- 29.94 in1013.9 mb 0.00 in0.0 mm 0.00 in/hr0.0 mm/hr 0.29 in7.4 mm
01:35 PM 64.3°F17.9°C 50.1°F10.1°C 60% Calm Calm 2.0 mph3.2 kmh 29.93 in1013.5 mb 0.00 in0.0 mm 0.00 in/hr0.0 mm/hr 0.29 in7.4 mm
01:40 PM 64.1°F17.8°C 50.4°F10.2°C 61% Calm Calm -- 29.93 in1013.5 mb 0.00 in0.0 mm 0.00 in/hr0.0 mm/hr 0.29 in7.4 mm
01:45 PM 63.9°F17.7°C 50.2°F10.1°C 61% Calm Calm -- 29.94 in1013.9 mb 0.00 in0.0 mm 0.00 in/hr0.0 mm/hr 0.29 in7.4 mm
01:50 PM 64.0°F17.8°C 51.6°F10.9°C 64% Calm Calm -- 29.94 in1013.9 mb 0.00 in0.0 mm 0.00 in/hr0.0 mm/hr 0.29 in7.4 mm
01:55 PM 64.2°F17.9°C 50.5°F10.3°C 61% Calm Calm 1.0 mph1.6 kmh 29.94 in1013.9 mb 0.00 in0.0 mm 0.00 in/hr0.0 mm/hr 0.29 in7.4 mm
02:00 PM 64.6°F18.1°C 51.3°F10.7°C 62% Calm Calm -- 29.93 in1013.5 mb 0.00 in0.0 mm 0.00 in/hr0.0 mm/hr 0.29 in7.4 mm
02:05 PM 65.0°F18.3°C 51.2°F10.7°C 61% Calm Calm -- 29.93 in1013.5 mb 0.00 in0.0 mm 0.00 in/hr0.0 mm/hr 0.29 in7.4 mm
02:10 PM 65.3°F18.5°C 50.6°F10.3°C 59% Calm Calm -- 29.94 in1013.9 mb 0.00 in0.0 mm 0.00 in/hr0.0 mm/hr 0.29 in7.4 mm
02:15 PM 65.6°F18.7°C 50.9°F10.5°C 59% Calm Calm 1.0 mph1.6 kmh 29.93 in1013.5 mb 0.00 in0.0 mm 0.00 in/hr0.0 mm/hr 0.29 in7.4 mm
02:20 PM 65.1°F18.4°C 51.3°F10.7°C 61% Calm Calm 1.0 mph1.6 kmh 29.93 in1013.5 mb 0.00 in0.0 mm 0.00 in/hr0.0 mm/hr 0.29 in7.4 mm
02:25 PM 64.2°F17.9°C 51.8°F11.0°C 64% Calm Calm 3.0 mph4.8 kmh 29.93 in1013.5 mb 0.00 in0.0 mm 0.00 in/hr0.0 mm/hr 0.29 in7.4 mm
02:30 PM 63.9°F17.7°C 51.9°F11.1°C 65% Calm Calm -- 29.93 in1013.5 mb 0.00 in0.0 mm 0.00 in/hr0.0 mm/hr 0.29 in7.4 mm
02:35 PM 63.5°F17.5°C 51.1°F10.6°C 64% Calm Calm 3.0 mph4.8 kmh 29.93 in1013.5 mb 0.00 in0.0 mm 0.00 in/hr0.0 mm/hr 0.29 in7.4 mm
02:40 PM 63.7°F17.6°C 52.1°F11.2°C 66% Calm Calm -- 29.93 in1013.5 mb 0.00 in0.0 mm 0.00 in/hr0.0 mm/hr 0.29 in7.4 mm
02:45 PM 63.9°F17.7°C 51.9°F11.1°C 65% Calm Calm 3.0 mph4.8 kmh 29.93 in1013.5 mb 0.00 in0.0 mm 0.00 in/hr0.0 mm/hr 0.29 in7.4 mm
02:50 PM 64.0°F17.8°C 51.6°F10.9°C 64% Calm Calm -- 29.93 in1013.5 mb 0.00 in0.0 mm 0.00 in/hr0.0 mm/hr 0.29 in7.4 mm
02:55 PM 64.2°F17.9°C 52.2°F11.2°C 65% 1.0 mph NNE1.6 kmh NNE 3.0 mph4.8 kmh 29.92 in1013.2 mb 0.00 in0.0 mm 0.00 in/hr0.0 mm/hr 0.29 in7.4 mm
03:00 PM 64.6°F18.1°C 52.6°F11.4°C 65% 2.0 mph NE3.2 kmh NE 3.0 mph4.8 kmh 29.92 in1013.2 mb 0.00 in0.0 mm 0.00 in/hr0.0 mm/hr 0.29 in7.4 mm
03:05 PM 65.0°F18.3°C 53.4°F11.9°C 66% Calm Calm 4.0 mph6.4 kmh 29.92 in1013.2 mb 0.00 in0.0 mm 0.00 in/hr0.0 mm/hr 0.29 in7.4 mm
03:10 PM 65.6°F18.7°C 53.5°F11.9°C 65% Calm Calm -- 29.92 in1013.2 mb 0.00 in0.0 mm 0.00 in/hr0.0 mm/hr 0.29 in7.4 mm
03:15 PM 66.1°F18.9°C 53.2°F11.8°C 63% 5.0 mph NNE8.0 kmh NNE 5.0 mph8.0 kmh 29.91 in1012.9 mb 0.00 in0.0 mm 0.00 in/hr0.0 mm/hr 0.29 in7.4 mm
03:20 PM 66.3°F19.1°C 52.9°F11.6°C 62% Calm Calm 3.0 mph4.8 kmh 29.91 in1012.9 mb 0.00 in0.0 mm 0.00 in/hr0.0 mm/hr 0.29 in7.4 mm
03:25 PM 66.8°F19.3°C 54.3°F12.4°C 64% 1.0 mph NE1.6 kmh NE 3.0 mph4.8 kmh 29.91 in1012.9 mb 0.00 in0.0 mm 0.00 in/hr0.0 mm/hr 0.29 in7.4 mm
03:30 PM 67.0°F19.4°C 54.0°F12.2°C 63% Calm Calm 1.0 mph1.6 kmh 29.90 in1012.5 mb 0.00 in0.0 mm 0.00 in/hr0.0 mm/hr 0.29 in7.4 mm
03:35 PM 67.2°F19.6°C 54.6°F12.6°C 64% 1.0 mph N1.6 kmh N 3.0 mph4.8 kmh 29.90 in1012.5 mb 0.00 in0.0 mm 0.00 in/hr0.0 mm/hr 0.29 in7.4 mm
03:40 PM 67.6°F19.8°C 55.0°F12.8°C 64% 6.0 mph N9.7 kmh N 6.0 mph9.7 kmh 29.90 in1012.5 mb 0.00 in0.0 mm 0.00 in/hr0.0 mm/hr 0.29 in7.4 mm
03:45 PM 67.6°F19.8°C 55.0°F12.8°C 64% Calm Calm 7.0 mph11.3 kmh 29.90 in1012.5 mb 0.00 in0.0 mm 0.00 in/hr0.0 mm/hr 0.29 in7.4 mm
03:50 PM 67.3°F19.6°C 54.3°F12.4°C 63% Calm Calm 1.0 mph1.6 kmh 29.89 in1012.2 mb 0.00 in0.0 mm 0.00 in/hr0.0 mm/hr 0.29 in7.4 mm
03:55 PM 67.0°F19.4°C 55.3°F12.9°C 66% 3.0 mph NW4.8 kmh NW 6.0 mph9.7 kmh 29.89 in1012.2 mb 0.00 in0.0 mm 0.00 in/hr0.0 mm/hr 0.29 in7.4 mm
04:00 PM 66.8°F19.3°C 54.7°F12.6°C 65% Calm Calm -- 29.88 in1011.9 mb 0.00 in0.0 mm 0.00 in/hr0.0 mm/hr 0.29 in7.4 mm
04:05 PM 67.2°F19.6°C 55.5°F13.1°C 66% 1.0 mph N1.6 kmh N 4.0 mph6.4 kmh 29.87 in1011.5 mb 0.00 in0.0 mm 0.00 in/hr0.0 mm/hr 0.29 in7.4 mm
04:10 PM 67.8°F19.9°C 55.6°F13.1°C 65% Calm Calm 2.0 mph3.2 kmh 29.87 in1011.5 mb 0.00 in0.0 mm 0.00 in/hr0.0 mm/hr 0.29 in7.4 mm
04:15 PM 67.9°F19.9°C 55.3°F12.9°C 64% Calm Calm 6.0 mph9.7 kmh 29.87 in1011.5 mb 0.00 in0.0 mm 0.00 in/hr0.0 mm/hr 0.29 in7.4 mm
04:20 PM 67.5°F19.7°C 55.3°F12.9°C 65% Calm Calm 2.0 mph3.2 kmh 29.87 in1011.5 mb 0.00 in0.0 mm 0.00 in/hr0.0 mm/hr 0.29 in7.4 mm
04:25 PM 67.1°F19.5°C 55.4°F13.0°C 66% Calm Calm 5.0 mph8.0 kmh 29.87 in1011.5 mb 0.00 in0.0 mm 0.00 in/hr0.0 mm/hr 0.29 in7.4 mm
04:30 PM 66.8°F19.3°C 55.5°F13.1°C 67% Calm Calm 1.0 mph1.6 kmh 29.86 in1011.2 mb 0.00 in0.0 mm 0.00 in/hr0.0 mm/hr 0.29 in7.4 mm
04:35 PM 66.6°F19.2°C 55.3°F12.9°C 67% Calm Calm 1.0 mph1.6 kmh 29.86 in1011.2 mb 0.00 in0.0 mm 0.00 in/hr0.0 mm/hr 0.29 in7.4 mm
04:40 PM 66.4°F19.1°C 55.5°F13.1°C 68% Calm Calm -- 29.86 in1011.2 mb 0.00 in0.0 mm 0.00 in/hr0.0 mm/hr 0.29 in7.4 mm
04:45 PM 66.1°F18.9°C 55.7°F13.2°C 69% Calm Calm 4.0 mph6.4 kmh 29.86 in1011.2 mb 0.00 in0.0 mm 0.00 in/hr0.0 mm/hr 0.29 in7.4 mm
04:50 PM 65.9°F18.8°C 55.5°F13.1°C 69% Calm Calm -- 29.86 in1011.2 mb 0.00 in0.0 mm 0.00 in/hr0.0 mm/hr 0.29 in7.4 mm
04:55 PM 65.8°F18.8°C 55.4°F13.0°C 69% 1.0 mph NNW1.6 kmh NNW 2.0 mph3.2 kmh 29.87 in1011.5 mb 0.00 in0.0 mm 0.00 in/hr0.0 mm/hr 0.29 in7.4 mm
05:00 PM 65.6°F18.7°C 55.6°F13.1°C 70% Calm Calm -- 29.86 in1011.2 mb 0.00 in0.0 mm 0.00 in/hr0.0 mm/hr 0.29 in7.4 mm
05:10 PM 65.4°F18.6°C 55.8°F13.2°C 71% Calm Calm -- 29.87 in1011.5 mb 0.00 in0.0 mm 0.00 in/hr0.0 mm/hr 0.29 in7.4 mm
05:15 PM 65.2°F18.4°C 56.7°F13.7°C 74% Calm Calm 2.0 mph3.2 kmh 29.86 in1011.2 mb 0.00 in0.0 mm 0.00 in/hr0.0 mm/hr 0.29 in7.4 mm
05:20 PM 64.6°F18.1°C 57.2°F14.0°C 77% Calm Calm -- 29.85 in1010.8 mb 0.02 in0.5 mm 0.24 in/hr6.1 mm/hr 0.31 in7.9 mm
05:25 PM 64.0°F17.8°C 57.4°F14.1°C 79% Calm Calm 3.0 mph4.8 kmh 29.85 in1010.8 mb 0.02 in0.5 mm 0.00 in/hr0.0 mm/hr 0.31 in7.9 mm
05:30 PM 63.2°F17.3°C 57.3°F14.1°C 81% Calm Calm -- 29.85 in1010.8 mb 0.02 in0.5 mm 0.00 in/hr0.0 mm/hr 0.31 in7.9 mm
05:35 PM 62.8°F17.1°C 57.6°F14.2°C 83% Calm Calm -- 29.85 in1010.8 mb 0.03 in0.8 mm 0.12 in/hr3.0 mm/hr 0.32 in8.1 mm
05:40 PM 62.4°F16.9°C 57.2°F14.0°C 83% Calm Calm 1.0 mph1.6 kmh 29.84 in1010.5 mb 0.03 in0.8 mm 0.00 in/hr0.0 mm/hr 0.32 in8.1 mm
05:45 PM 61.8°F16.6°C 56.9°F13.8°C 84% Calm Calm 1.0 mph1.6 kmh 29.84 in1010.5 mb 0.03 in0.8 mm 0.00 in/hr0.0 mm/hr 0.32 in8.1 mm
05:50 PM 61.4°F16.3°C 56.5°F13.6°C 84% Calm Calm -- 29.88 in1011.9 mb 0.04 in1.0 mm 0.12 in/hr3.0 mm/hr 0.33 in8.4 mm
05:55 PM 61.0°F16.1°C 56.5°F13.6°C 85% Calm Calm 1.0 mph1.6 kmh 29.88 in1011.9 mb 0.05 in1.3 mm 0.12 in/hr3.0 mm/hr 0.34 in8.6 mm
06:00 PM 60.7°F15.9°C 56.5°F13.6°C 86% Calm Calm -- 29.90 in1012.5 mb 0.11 in2.8 mm 0.07 in/hr1.8 mm/hr 0.40 in10.2 mm
06:05 PM 60.2°F15.7°C 56.3°F13.5°C 87% Calm Calm 3.0 mph4.8 kmh 29.90 in1012.5 mb 0.22 in5.6 mm 1.32 in/hr33.5 mm/hr 0.51 in13.0 mm
06:10 PM 59.8°F15.4°C 56.2°F13.4°C 88% Calm Calm -- 29.89 in1012.2 mb 0.25 in6.4 mm 0.36 in/hr9.1 mm/hr 0.54 in13.7 mm
06:15 PM 59.6°F15.3°C 56.4°F13.6°C 89% Calm Calm -- 29.89 in1012.2 mb 0.26 in6.6 mm 0.12 in/hr3.0 mm/hr 0.55 in14.0 mm
06:20 PM 59.5°F15.3°C 56.3°F13.5°C 89% Calm Calm -- 29.89 in1012.2 mb 0.24 in6.1 mm 0.00 in/hr0.0 mm/hr 0.55 in14.0 mm
06:25 PM 59.5°F15.3°C 56.3°F13.5°C 89% Calm Calm -- 29.90 in1012.5 mb 0.24 in6.1 mm 0.00 in/hr0.0 mm/hr 0.55 in14.0 mm
06:30 PM 59.5°F15.3°C 56.6°F13.7°C 90% Calm Calm -- 29.90 in1012.5 mb 0.25 in6.4 mm 0.12 in/hr3.0 mm/hr 0.56 in14.2 mm
06:35 PM 59.4°F15.2°C 56.5°F13.6°C 90% Calm Calm 3.0 mph4.8 kmh 29.90 in1012.5 mb 0.27 in6.9 mm 0.24 in/hr6.1 mm/hr 0.58 in14.7 mm
06:40 PM 59.2°F15.1°C 56.3°F13.5°C 90% Calm Calm -- 29.89 in1012.2 mb 0.27 in6.9 mm 0.00 in/hr0.0 mm/hr 0.58 in14.7 mm
06:45 PM 59.1°F15.1°C 56.5°F13.6°C 91% Calm Calm 1.0 mph1.6 kmh 29.89 in1012.2 mb 0.28 in7.1 mm 0.12 in/hr3.0 mm/hr 0.59 in15.0 mm
06:50 PM 59.0°F15.0°C 56.4°F13.6°C 91% Calm Calm -- 29.89 in1012.2 mb 0.29 in7.4 mm 0.12 in/hr3.0 mm/hr 0.60 in15.2 mm
06:55 PM 59.0°F15.0°C 56.4°F13.6°C 91% Calm Calm 1.0 mph1.6 kmh 29.89 in1012.2 mb 0.29 in7.4 mm 0.00 in/hr0.0 mm/hr 0.60 in15.2 mm
07:00 PM 59.0°F15.0°C 56.4°F13.6°C 91% Calm Calm 1.0 mph1.6 kmh 29.89 in1012.2 mb 0.24 in6.1 mm 0.00 in/hr0.0 mm/hr 0.60 in15.2 mm
07:05 PM 59.0°F15.0°C 56.4°F13.6°C 91% Calm Calm 1.0 mph1.6 kmh 29.89 in1012.2 mb 0.24 in6.1 mm 0.00 in/hr0.0 mm/hr 0.60 in15.2 mm
07:10 PM 59.0°F15.0°C 56.4°F13.6°C 91% Calm Calm -- 29.89 in1012.2 mb 0.10 in2.5 mm 0.00 in/hr0.0 mm/hr 0.60 in15.2 mm
07:15 PM 59.0°F15.0°C 56.7°F13.7°C 92% Calm Calm 2.0 mph3.2 kmh 29.89 in1012.2 mb 0.10 in2.5 mm 0.00 in/hr0.0 mm/hr 0.60 in15.2 mm
07:20 PM 59.0°F15.0°C 56.7°F13.7°C 92% Calm Calm -- 29.90 in1012.5 mb 0.11 in2.8 mm 0.12 in/hr3.0 mm/hr 0.61 in15.5 mm
07:25 PM 59.1°F15.1°C 56.8°F13.8°C 92% Calm Calm 2.0 mph3.2 kmh 29.90 in1012.5 mb 0.17 in4.3 mm 0.72 in/hr18.3 mm/hr 0.67 in17.0 mm
07:30 PM 59.3°F15.2°C 57.0°F13.9°C 92% 1.0 mph SSW1.6 kmh SSW 2.0 mph3.2 kmh 29.90 in1012.5 mb 0.20 in5.1 mm 0.36 in/hr9.1 mm/hr 0.70 in17.8 mm
07:35 PM 59.5°F15.3°C 57.2°F14.0°C 92% Calm Calm 3.0 mph4.8 kmh 29.89 in1012.2 mb 0.22 in5.6 mm 0.24 in/hr6.1 mm/hr 0.72 in18.3 mm
07:40 PM 59.6°F15.3°C 57.3°F14.1°C 92% Calm Calm -- 29.89 in1012.2 mb 0.22 in5.6 mm 0.00 in/hr0.0 mm/hr 0.72 in18.3 mm
07:45 PM 59.7°F15.4°C 57.4°F14.1°C 92% Calm Calm -- 29.89 in1012.2 mb 0.24 in6.1 mm 0.24 in/hr6.1 mm/hr 0.74 in18.8 mm
07:50 PM 59.7°F15.4°C 57.4°F14.1°C 92% Calm Calm -- 29.88 in1011.9 mb 0.24 in6.1 mm 0.00 in/hr0.0 mm/hr 0.74 in18.8 mm
07:55 PM 59.7°F15.4°C 57.4°F14.1°C 92% Calm Calm -- 29.88 in1011.9 mb 0.26 in6.6 mm 0.24 in/hr6.1 mm/hr 0.76 in19.3 mm